sensor_id;sensor_type;location;lat;lon;timestamp;P1;durP1;ratioP1;P2;durP2;ratioP2
9082;SDS011;4577;48.704;9.000;2023-08-30T00:00:43;8.57;;;7.77;;
9082;SDS011;4577;48.704;9.000;2023-08-30T00:03:10;14.93;;;7.43;;
9082;SDS011;4577;48.704;9.000;2023-08-30T00:05:40;8.70;;;7.80;;
9082;SDS011;4577;48.704;9.000;2023-08-30T00:08:07;8.00;;;7.20;;
9082;SDS011;4577;48.704;9.000;2023-08-30T00:10:33;9.83;;;7.60;;
9082;SDS011;4577;48.704;9.000;2023-08-30T00:12:59;9.00;;;6.90;;
9082;SDS011;4577;48.704;9.000;2023-08-30T00:15:25;13.00;;;10.40;;
9082;SDS011;4577;48.704;9.000;2023-08-30T00:17:51;22.87;;;17.60;;
9082;SDS011;4577;48.704;9.000;2023-08-30T00:20:17;12.03;;;8.53;;
9082;SDS011;4577;48.704;9.000;2023-08-30T00:22:43;8.13;;;6.70;;
9082;SDS011;4577;48.704;9.000;2023-08-30T00:25:09;9.03;;;6.87;;
9082;SDS011;4577;48.704;9.000;2023-08-30T00:27:36;7.33;;;6.70;;
9082;SDS011;4577;48.704;9.000;2023-08-30T00:30:02;8.10;;;7.40;;
9082;SDS011;4577;48.704;9.000;2023-08-30T00:32:29;7.83;;;7.13;;
9082;SDS011;4577;48.704;9.000;2023-08-30T00:34:55;10.53;;;7.07;;
9082;SDS011;4577;48.704;9.000;2023-08-30T00:37:21;7.93;;;7.13;;
9082;SDS011;4577;48.704;9.000;2023-08-30T00:39:47;11.80;;;6.83;;
9082;SDS011;4577;48.704;9.000;2023-08-30T00:42:13;7.90;;;7.10;;
9082;SDS011;4577;48.704;9.000;2023-08-30T00:44:39;11.40;;;7.20;;
9082;SDS011;4577;48.704;9.000;2023-08-30T00:47:06;7.97;;;7.27;;
9082;SDS011;4577;48.704;9.000;2023-08-30T00:49:32;8.63;;;7.33;;
9082;SDS011;4577;48.704;9.000;2023-08-30T00:51:58;11.27;;;7.10;;
9082;SDS011;4577;48.704;9.000;2023-08-30T00:54:32;8.07;;;7.27;;
9082;SDS011;4577;48.704;9.000;2023-08-30T00:56:58;8.60;;;7.70;;
9082;SDS011;4577;48.704;9.000;2023-08-30T00:59:26;11.90;;;8.03;;
9082;SDS011;4577;48.704;9.000;2023-08-30T01:01:53;13.40;;;8.23;;
9082;SDS011;4577;48.704;9.000;2023-08-30T01:04:21;11.20;;;10.10;;
9082;SDS011;4577;48.704;9.000;2023-08-30T01:06:47;10.83;;;9.80;;
9082;SDS011;4577;48.704;9.000;2023-08-30T01:09:13;11.23;;;9.53;;
9082;SDS011;4577;48.704;9.000;2023-08-30T01:14:35;13.93;;;9.57;;
9082;SDS011;4577;48.704;9.000;2023-08-30T01:17:04;12.63;;;8.67;;
9082;SDS011;4577;48.704;9.000;2023-08-30T01:22:29;9.67;;;8.40;;
9082;SDS011;4577;48.704;9.000;2023-08-30T01:27:40;15.30;;;9.77;;
9082;SDS011;4577;48.704;9.000;2023-08-30T01:30:08;13.47;;;10.00;;
9082;SDS011;4577;48.704;9.000;2023-08-30T01:32:36;10.37;;;9.20;;
9082;SDS011;4577;48.704;9.000;2023-08-30T01:35:03;14.40;;;10.40;;
9082;SDS011;4577;48.704;9.000;2023-08-30T01:37:30;12.83;;;10.07;;
9082;SDS011;4577;48.704;9.000;2023-08-30T01:39:57;10.83;;;9.77;;
9082;SDS011;4577;48.704;9.000;2023-08-30T01:42:24;10.37;;;9.33;;
9082;SDS011;4577;48.704;9.000;2023-08-30T01:44:52;12.30;;;10.20;;
9082;SDS011;4577;48.704;9.000;2023-08-30T01:47:23;11.00;;;9.90;;
9082;SDS011;4577;48.704;9.000;2023-08-30T01:49:52;11.80;;;10.20;;
9082;SDS011;4577;48.704;9.000;2023-08-30T01:52:19;13.77;;;9.70;;
9082;SDS011;4577;48.704;9.000;2023-08-30T01:54:46;12.80;;;10.03;;
9082;SDS011;4577;48.704;9.000;2023-08-30T01:57:13;11.10;;;10.07;;
9082;SDS011;4577;48.704;9.000;2023-08-30T01:59:39;12.93;;;11.07;;
9082;SDS011;4577;48.704;9.000;2023-08-30T02:02:05;38.33;;;25.83;;
9082;SDS011;4577;48.704;9.000;2023-08-30T02:04:31;24.27;;;18.53;;
9082;SDS011;4577;48.704;9.000;2023-08-30T02:06:57;22.03;;;15.80;;
9082;SDS011;4577;48.704;9.000;2023-08-30T02:12:15;24.77;;;14.40;;
9082;SDS011;4577;48.704;9.000;2023-08-30T02:14:45;20.03;;;15.40;;
9082;SDS011;4577;48.704;9.000;2023-08-30T02:17:13;38.47;;;22.77;;
9082;SDS011;4577;48.704;9.000;2023-08-30T02:19:39;13.10;;;11.57;;
9082;SDS011;4577;48.704;9.000;2023-08-30T02:22:06;14.03;;;11.40;;
9082;SDS011;4577;48.704;9.000;2023-08-30T02:24:32;12.00;;;10.80;;
9082;SDS011;4577;48.704;9.000;2023-08-30T02:26:58;17.60;;;10.70;;
9082;SDS011;4577;48.704;9.000;2023-08-30T02:29:24;14.60;;;12.60;;
9082;SDS011;4577;48.704;9.000;2023-08-30T02:31:50;22.03;;;13.33;;
9082;SDS011;4577;48.704;9.000;2023-08-30T02:34:16;14.43;;;13.00;;
9082;SDS011;4577;48.704;9.000;2023-08-30T02:36:42;17.00;;;12.40;;
9082;SDS011;4577;48.704;9.000;2023-08-30T02:39:08;15.10;;;12.63;;
9082;SDS011;4577;48.704;9.000;2023-08-30T02:41:34;18.97;;;12.23;;
9082;SDS011;4577;48.704;9.000;2023-08-30T02:44:00;17.17;;;13.90;;
9082;SDS011;4577;48.704;9.000;2023-08-30T02:46:26;19.27;;;13.40;;
9082;SDS011;4577;48.704;9.000;2023-08-30T02:48:52;19.93;;;13.33;;
9082;SDS011;4577;48.704;9.000;2023-08-30T02:51:18;20.97;;;14.60;;
9082;SDS011;4577;48.704;9.000;2023-08-30T02:53:44;29.27;;;20.80;;
9082;SDS011;4577;48.704;9.000;2023-08-30T02:56:10;21.50;;;16.87;;
9082;SDS011;4577;48.704;9.000;2023-08-30T02:58:36;23.93;;;15.80;;
9082;SDS011;4577;48.704;9.000;2023-08-30T03:01:02;21.77;;;15.80;;
9082;SDS011;4577;48.704;9.000;2023-08-30T03:03:28;19.40;;;14.97;;
9082;SDS011;4577;48.704;9.000;2023-08-30T03:05:54;17.97;;;14.57;;
9082;SDS011;4577;48.704;9.000;2023-08-30T03:08:21;23.97;;;18.77;;
9082;SDS011;4577;48.704;9.000;2023-08-30T03:10:47;29.97;;;21.30;;
9082;SDS011;4577;48.704;9.000;2023-08-30T03:13:13;30.70;;;22.27;;
9082;SDS011;4577;48.704;9.000;2023-08-30T03:15:39;16.43;;;13.23;;
9082;SDS011;4577;48.704;9.000;2023-08-30T03:18:05;20.10;;;12.03;;
9082;SDS011;4577;48.704;9.000;2023-08-30T03:20:31;14.93;;;12.00;;
9082;SDS011;4577;48.704;9.000;2023-08-30T03:22:57;13.03;;;11.03;;
9082;SDS011;4577;48.704;9.000;2023-08-30T03:25:28;12.47;;;11.17;;
9082;SDS011;4577;48.704;9.000;2023-08-30T03:27:54;16.77;;;11.23;;
9082;SDS011;4577;48.704;9.000;2023-08-30T03:30:20;12.50;;;11.20;;
9082;SDS011;4577;48.704;9.000;2023-08-30T03:32:46;12.33;;;10.63;;
9082;SDS011;4577;48.704;9.000;2023-08-30T03:35:12;10.83;;;9.73;;
9082;SDS011;4577;48.704;9.000;2023-08-30T03:37:40;13.53;;;8.70;;
9082;SDS011;4577;48.704;9.000;2023-08-30T03:40:06;10.00;;;9.00;;
9082;SDS011;4577;48.704;9.000;2023-08-30T03:42:32;10.97;;;8.17;;
9082;SDS011;4577;48.704;9.000;2023-08-30T03:44:58;8.83;;;6.97;;
9082;SDS011;4577;48.704;9.000;2023-08-30T03:47:24;10.13;;;7.63;;
9082;SDS011;4577;48.704;9.000;2023-08-30T03:49:50;8.50;;;7.70;;
9082;SDS011;4577;48.704;9.000;2023-08-30T03:52:16;12.17;;;7.90;;
9082;SDS011;4577;48.704;9.000;2023-08-30T03:54:42;13.73;;;8.30;;
9082;SDS011;4577;48.704;9.000;2023-08-30T03:57:08;9.97;;;7.50;;
9082;SDS011;4577;48.704;9.000;2023-08-30T03:59:35;7.90;;;7.10;;
9082;SDS011;4577;48.704;9.000;2023-08-30T04:02:00;9.50;;;7.30;;
9082;SDS011;4577;48.704;9.000;2023-08-30T04:04:26;10.20;;;7.70;;
9082;SDS011;4577;48.704;9.000;2023-08-30T04:06:52;9.63;;;8.40;;
9082;SDS011;4577;48.704;9.000;2023-08-30T04:09:18;11.77;;;8.77;;
9082;SDS011;4577;48.704;9.000;2023-08-30T04:11:46;11.87;;;10.67;;
9082;SDS011;4577;48.704;9.000;2023-08-30T04:14:12;13.30;;;10.80;;
9082;SDS011;4577;48.704;9.000;2023-08-30T04:16:38;12.07;;;10.70;;
9082;SDS011;4577;48.704;9.000;2023-08-30T04:19:04;12.60;;;11.30;;
9082;SDS011;4577;48.704;9.000;2023-08-30T04:21:30;14.13;;;11.40;;
9082;SDS011;4577;48.704;9.000;2023-08-30T04:23:55;18.17;;;10.73;;
9082;SDS011;4577;48.704;9.000;2023-08-30T04:26:21;14.80;;;11.57;;
9082;SDS011;4577;48.704;9.000;2023-08-30T04:28:47;14.40;;;12.33;;
9082;SDS011;4577;48.704;9.000;2023-08-30T04:31:13;15.47;;;13.17;;
9082;SDS011;4577;48.704;9.000;2023-08-30T04:33:40;18.10;;;12.60;;
9082;SDS011;4577;48.704;9.000;2023-08-30T04:36:06;16.70;;;12.10;;
9082;SDS011;4577;48.704;9.000;2023-08-30T04:38:32;19.40;;;12.77;;
9082;SDS011;4577;48.704;9.000;2023-08-30T04:40:58;14.77;;;12.60;;
9082;SDS011;4577;48.704;9.000;2023-08-30T04:43:24;14.73;;;11.90;;
9082;SDS011;4577;48.704;9.000;2023-08-30T04:45:51;15.47;;;12.17;;
9082;SDS011;4577;48.704;9.000;2023-08-30T04:48:17;21.30;;;12.80;;
9082;SDS011;4577;48.704;9.000;2023-08-30T04:50:43;20.03;;;13.47;;
9082;SDS011;4577;48.704;9.000;2023-08-30T04:53:09;24.40;;;13.33;;
9082;SDS011;4577;48.704;9.000;2023-08-30T04:55:35;22.03;;;12.13;;
9082;SDS011;4577;48.704;9.000;2023-08-30T04:58:01;14.53;;;11.43;;
9082;SDS011;4577;48.704;9.000;2023-08-30T05:00:27;28.40;;;12.70;;
9082;SDS011;4577;48.704;9.000;2023-08-30T05:02:53;26.63;;;13.20;;
9082;SDS011;4577;48.704;9.000;2023-08-30T05:05:19;12.10;;;10.87;;
9082;SDS011;4577;48.704;9.000;2023-08-30T05:07:45;14.83;;;10.87;;
9082;SDS011;4577;48.704;9.000;2023-08-30T05:10:11;16.80;;;10.83;;
9082;SDS011;4577;48.704;9.000;2023-08-30T05:12:37;17.10;;;11.00;;
9082;SDS011;4577;48.704;9.000;2023-08-30T05:15:03;17.83;;;10.63;;
9082;SDS011;4577;48.704;9.000;2023-08-30T05:17:29;14.77;;;10.97;;
9082;SDS011;4577;48.704;9.000;2023-08-30T05:19:55;10.97;;;9.80;;
9082;SDS011;4577;48.704;9.000;2023-08-30T05:22:22;15.00;;;9.90;;
9082;SDS011;4577;48.704;9.000;2023-08-30T05:24:48;21.43;;;11.20;;
9082;SDS011;4577;48.704;9.000;2023-08-30T05:27:14;13.47;;;10.30;;
9082;SDS011;4577;48.704;9.000;2023-08-30T05:29:42;12.33;;;10.23;;
9082;SDS011;4577;48.704;9.000;2023-08-30T05:32:07;17.63;;;10.30;;
9082;SDS011;4577;48.704;9.000;2023-08-30T05:34:33;14.93;;;9.40;;
9082;SDS011;4577;48.704;9.000;2023-08-30T05:36:59;16.63;;;10.50;;
9082;SDS011;4577;48.704;9.000;2023-08-30T05:39:26;10.90;;;9.80;;
9082;SDS011;4577;48.704;9.000;2023-08-30T05:41:52;14.00;;;9.80;;
9082;SDS011;4577;48.704;9.000;2023-08-30T05:44:18;12.03;;;9.07;;
9082;SDS011;4577;48.704;9.000;2023-08-30T05:46:44;18.40;;;9.40;;
9082;SDS011;4577;48.704;9.000;2023-08-30T05:49:10;10.50;;;9.40;;
9082;SDS011;4577;48.704;9.000;2023-08-30T05:51:36;9.97;;;8.97;;
9082;SDS011;4577;48.704;9.000;2023-08-30T05:54:02;11.70;;;9.40;;
9082;SDS011;4577;48.704;9.000;2023-08-30T05:56:28;20.70;;;9.90;;
9082;SDS011;4577;48.704;9.000;2023-08-30T05:58:54;10.47;;;9.30;;
9082;SDS011;4577;48.704;9.000;2023-08-30T06:01:20;10.23;;;9.13;;
9082;SDS011;4577;48.704;9.000;2023-08-30T06:03:46;14.50;;;9.27;;
9082;SDS011;4577;48.704;9.000;2023-08-30T06:06:12;12.70;;;9.07;;
9082;SDS011;4577;48.704;9.000;2023-08-30T06:08:38;10.80;;;9.03;;
9082;SDS011;4577;48.704;9.000;2023-08-30T06:11:04;10.17;;;9.17;;
9082;SDS011;4577;48.704;9.000;2023-08-30T06:13:31;13.60;;;10.07;;
9082;SDS011;4577;48.704;9.000;2023-08-30T06:15:57;11.40;;;10.30;;
9082;SDS011;4577;48.704;9.000;2023-08-30T06:18:23;11.63;;;10.00;;
9082;SDS011;4577;48.704;9.000;2023-08-30T06:20:49;11.17;;;9.70;;
9082;SDS011;4577;48.704;9.000;2023-08-30T06:23:18;12.43;;;11.07;;
9082;SDS011;4577;48.704;9.000;2023-08-30T06:25:45;12.30;;;10.00;;
9082;SDS011;4577;48.704;9.000;2023-08-30T06:28:11;11.50;;;9.83;;
9082;SDS011;4577;48.704;9.000;2023-08-30T06:30:37;11.10;;;9.30;;
9082;SDS011;4577;48.704;9.000;2023-08-30T06:33:03;12.40;;;9.40;;
9082;SDS011;4577;48.704;9.000;2023-08-30T06:35:30;10.50;;;9.40;;
9082;SDS011;4577;48.704;9.000;2023-08-30T06:37:56;10.80;;;9.70;;
9082;SDS011;4577;48.704;9.000;2023-08-30T06:40:22;11.23;;;8.90;;
9082;SDS011;4577;48.704;9.000;2023-08-30T06:42:49;10.07;;;9.07;;
9082;SDS011;4577;48.704;9.000;2023-08-30T06:45:15;13.20;;;9.20;;
9082;SDS011;4577;48.704;9.000;2023-08-30T06:47:41;10.13;;;9.13;;
9082;SDS011;4577;48.704;9.000;2023-08-30T06:50:07;11.80;;;8.90;;
9082;SDS011;4577;48.704;9.000;2023-08-30T06:52:34;10.90;;;8.67;;
9082;SDS011;4577;48.704;9.000;2023-08-30T06:55:01;10.40;;;8.93;;
9082;SDS011;4577;48.704;9.000;2023-08-30T06:57:28;15.03;;;10.20;;
9082;SDS011;4577;48.704;9.000;2023-08-30T07:00:03;20.63;;;9.87;;
9082;SDS011;4577;48.704;9.000;2023-08-30T07:02:36;10.53;;;9.43;;
9082;SDS011;4577;48.704;9.000;2023-08-30T07:05:02;13.63;;;9.03;;
9082;SDS011;4577;48.704;9.000;2023-08-30T07:07:30;10.77;;;9.13;;
9082;SDS011;4577;48.704;9.000;2023-08-30T07:09:56;10.60;;;8.53;;
9082;SDS011;4577;48.704;9.000;2023-08-30T07:12:22;11.60;;;9.87;;
9082;SDS011;4577;48.704;9.000;2023-08-30T07:14:48;10.33;;;9.33;;
9082;SDS011;4577;48.704;9.000;2023-08-30T07:17:14;14.10;;;9.90;;
9082;SDS011;4577;48.704;9.000;2023-08-30T07:19:40;12.20;;;9.30;;
9082;SDS011;4577;48.704;9.000;2023-08-30T07:22:07;13.90;;;9.27;;
9082;SDS011;4577;48.704;9.000;2023-08-30T07:24:33;13.23;;;10.60;;
9082;SDS011;4577;48.704;9.000;2023-08-30T07:26:59;10.87;;;9.20;;
9082;SDS011;4577;48.704;9.000;2023-08-30T07:29:25;11.23;;;8.77;;
9082;SDS011;4577;48.704;9.000;2023-08-30T07:31:51;16.43;;;8.70;;
9082;SDS011;4577;48.704;9.000;2023-08-30T07:34:18;11.20;;;8.30;;
9082;SDS011;4577;48.704;9.000;2023-08-30T07:36:44;11.40;;;8.53;;
9082;SDS011;4577;48.704;9.000;2023-08-30T07:39:10;13.70;;;9.40;;
9082;SDS011;4577;48.704;9.000;2023-08-30T07:41:37;11.93;;;9.70;;
9082;SDS011;4577;48.704;9.000;2023-08-30T07:44:03;11.00;;;9.23;;
9082;SDS011;4577;48.704;9.000;2023-08-30T07:46:29;14.60;;;10.27;;
9082;SDS011;4577;48.704;9.000;2023-08-30T07:48:55;10.73;;;9.63;;
9082;SDS011;4577;48.704;9.000;2023-08-30T07:51:21;10.83;;;9.50;;
9082;SDS011;4577;48.704;9.000;2023-08-30T07:53:47;12.83;;;9.70;;
9082;SDS011;4577;48.704;9.000;2023-08-30T07:56:13;10.67;;;8.53;;
9082;SDS011;4577;48.704;9.000;2023-08-30T07:58:40;9.80;;;8.80;;
9082;SDS011;4577;48.704;9.000;2023-08-30T08:01:07;9.70;;;8.70;;
9082;SDS011;4577;48.704;9.000;2023-08-30T08:03:34;14.73;;;11.50;;
9082;SDS011;4577;48.704;9.000;2023-08-30T08:06:00;10.10;;;8.80;;
9082;SDS011;4577;48.704;9.000;2023-08-30T08:08:26;9.30;;;8.40;;
9082;SDS011;4577;48.704;9.000;2023-08-30T08:10:52;10.47;;;8.40;;
9082;SDS011;4577;48.704;9.000;2023-08-30T08:13:18;9.17;;;8.20;;
9082;SDS011;4577;48.704;9.000;2023-08-30T08:15:44;9.23;;;7.33;;
9082;SDS011;4577;48.704;9.000;2023-08-30T08:18:10;8.00;;;7.20;;
9082;SDS011;4577;48.704;9.000;2023-08-30T08:20:36;9.97;;;8.00;;
9082;SDS011;4577;48.704;9.000;2023-08-30T08:23:04;7.60;;;6.90;;
9082;SDS011;4577;48.704;9.000;2023-08-30T08:25:30;8.23;;;7.47;;
9082;SDS011;4577;48.704;9.000;2023-08-30T08:27:56;14.77;;;11.00;;
9082;SDS011;4577;48.704;9.000;2023-08-30T08:30:22;17.60;;;12.13;;
9082;SDS011;4577;48.704;9.000;2023-08-30T08:32:48;18.23;;;13.13;;
9082;SDS011;4577;48.704;9.000;2023-08-30T08:35:14;8.53;;;6.67;;
9082;SDS011;4577;48.704;9.000;2023-08-30T08:37:41;7.80;;;6.67;;
9082;SDS011;4577;48.704;9.000;2023-08-30T08:40:07;7.63;;;6.60;;
9082;SDS011;4577;48.704;9.000;2023-08-30T08:42:36;10.23;;;7.40;;
9082;SDS011;4577;48.704;9.000;2023-08-30T08:45:03;12.03;;;9.87;;
9082;SDS011;4577;48.704;9.000;2023-08-30T08:47:29;11.17;;;7.50;;
9082;SDS011;4577;48.704;9.000;2023-08-30T08:49:56;10.80;;;8.20;;
9082;SDS011;4577;48.704;9.000;2023-08-30T08:52:25;7.50;;;6.80;;
9082;SDS011;4577;48.704;9.000;2023-08-30T08:54:51;6.70;;;6.10;;
9082;SDS011;4577;48.704;9.000;2023-08-30T08:57:18;11.73;;;7.00;;
9082;SDS011;4577;48.704;9.000;2023-08-30T08:59:44;7.23;;;6.53;;
9082;SDS011;4577;48.704;9.000;2023-08-30T09:02:11;7.33;;;5.50;;
9082;SDS011;4577;48.704;9.000;2023-08-30T09:04:39;13.20;;;6.23;;
9082;SDS011;4577;48.704;9.000;2023-08-30T09:07:05;8.20;;;6.03;;
9082;SDS011;4577;48.704;9.000;2023-08-30T09:09:32;7.20;;;6.43;;
9082;SDS011;4577;48.704;9.000;2023-08-30T09:11:58;10.30;;;5.50;;
9082;SDS011;4577;48.704;9.000;2023-08-30T09:14:24;11.77;;;5.80;;
9082;SDS011;4577;48.704;9.000;2023-08-30T09:16:54;5.83;;;5.23;;
9082;SDS011;4577;48.704;9.000;2023-08-30T09:19:20;8.50;;;6.10;;
9082;SDS011;4577;48.704;9.000;2023-08-30T09:21:57;17.03;;;10.10;;
9082;SDS011;4577;48.704;9.000;2023-08-30T09:24:24;10.27;;;6.80;;
9082;SDS011;4577;48.704;9.000;2023-08-30T09:26:53;11.07;;;8.90;;
9082;SDS011;4577;48.704;9.000;2023-08-30T09:29:20;14.77;;;10.67;;
9082;SDS011;4577;48.704;9.000;2023-08-30T09:31:50;8.43;;;7.07;;
9082;SDS011;4577;48.704;9.000;2023-08-30T09:34:21;10.70;;;8.87;;
9082;SDS011;4577;48.704;9.000;2023-08-30T09:36:51;8.73;;;6.20;;
9082;SDS011;4577;48.704;9.000;2023-08-30T09:39:17;6.00;;;5.40;;
9082;SDS011;4577;48.704;9.000;2023-08-30T09:44:09;9.13;;;5.87;;
9082;SDS011;4577;48.704;9.000;2023-08-30T09:46:45;9.10;;;6.20;;
9082;SDS011;4577;48.704;9.000;2023-08-30T09:49:12;6.97;;;6.30;;
9082;SDS011;4577;48.704;9.000;2023-08-30T09:51:39;7.80;;;6.17;;
9082;SDS011;4577;48.704;9.000;2023-08-30T09:54:25;8.37;;;6.70;;
9082;SDS011;4577;48.704;9.000;2023-08-30T09:56:53;7.77;;;6.53;;
9082;SDS011;4577;48.704;9.000;2023-08-30T09:59:22;7.60;;;6.50;;
9082;SDS011;4577;48.704;9.000;2023-08-30T10:01:49;10.77;;;7.20;;
9082;SDS011;4577;48.704;9.000;2023-08-30T10:04:15;6.90;;;5.73;;
9082;SDS011;4577;48.704;9.000;2023-08-30T10:06:42;7.20;;;6.33;;
9082;SDS011;4577;48.704;9.000;2023-08-30T10:09:08;12.90;;;8.40;;
9082;SDS011;4577;48.704;9.000;2023-08-30T10:11:35;19.30;;;12.90;;
9082;SDS011;4577;48.704;9.000;2023-08-30T10:14:06;7.73;;;6.30;;
9082;SDS011;4577;48.704;9.000;2023-08-30T10:16:51;9.50;;;4.97;;
9082;SDS011;4577;48.704;9.000;2023-08-30T10:19:24;9.23;;;4.93;;
9082;SDS011;4577;48.704;9.000;2023-08-30T10:22:01;25.03;;;15.37;;
9082;SDS011;4577;48.704;9.000;2023-08-30T10:24:38;5.90;;;4.63;;
9082;SDS011;4577;48.704;9.000;2023-08-30T10:27:07;6.20;;;5.33;;
9082;SDS011;4577;48.704;9.000;2023-08-30T10:29:35;8.93;;;5.90;;
9082;SDS011;4577;48.704;9.000;2023-08-30T10:32:04;15.70;;;9.00;;
9082;SDS011;4577;48.704;9.000;2023-08-30T10:34:33;5.37;;;4.33;;
9082;SDS011;4577;48.704;9.000;2023-08-30T10:37:02;12.83;;;5.80;;
9082;SDS011;4577;48.704;9.000;2023-08-30T10:39:35;15.70;;;9.33;;
9082;SDS011;4577;48.704;9.000;2023-08-30T10:42:07;9.67;;;5.50;;
9082;SDS011;4577;48.704;9.000;2023-08-30T10:47:29;21.27;;;7.27;;
9082;SDS011;4577;48.704;9.000;2023-08-30T10:49:56;5.27;;;3.70;;
9082;SDS011;4577;48.704;9.000;2023-08-30T10:52:24;7.60;;;4.67;;
9082;SDS011;4577;48.704;9.000;2023-08-30T10:54:50;4.63;;;3.73;;
9082;SDS011;4577;48.704;9.000;2023-08-30T10:57:20;4.20;;;3.80;;
9082;SDS011;4577;48.704;9.000;2023-08-30T11:00:05;10.57;;;3.50;;
9082;SDS011;4577;48.704;9.000;2023-08-30T11:02:33;4.00;;;3.60;;
9082;SDS011;4577;48.704;9.000;2023-08-30T11:04:59;3.87;;;3.57;;
9082;SDS011;4577;48.704;9.000;2023-08-30T11:07:27;4.50;;;3.90;;
9082;SDS011;4577;48.704;9.000;2023-08-30T11:09:53;6.20;;;3.80;;
9082;SDS011;4577;48.704;9.000;2023-08-30T11:12:19;3.30;;;3.00;;
9082;SDS011;4577;48.704;9.000;2023-08-30T11:14:47;12.27;;;4.40;;
9082;SDS011;4577;48.704;9.000;2023-08-30T11:17:15;6.23;;;3.33;;
9082;SDS011;4577;48.704;9.000;2023-08-30T11:19:42;4.33;;;3.90;;
9082;SDS011;4577;48.704;9.000;2023-08-30T11:22:08;6.13;;;3.90;;
9082;SDS011;4577;48.704;9.000;2023-08-30T11:24:34;5.37;;;3.80;;
9082;SDS011;4577;48.704;9.000;2023-08-30T11:27:00;3.90;;;3.37;;
9082;SDS011;4577;48.704;9.000;2023-08-30T11:29:27;8.60;;;4.57;;
9082;SDS011;4577;48.704;9.000;2023-08-30T11:31:53;6.50;;;2.93;;
9082;SDS011;4577;48.704;9.000;2023-08-30T11:34:22;3.10;;;2.20;;
9082;SDS011;4577;48.704;9.000;2023-08-30T11:36:48;4.77;;;2.20;;
9082;SDS011;4577;48.704;9.000;2023-08-30T11:39:15;5.70;;;3.10;;
9082;SDS011;4577;48.704;9.000;2023-08-30T11:41:42;4.03;;;3.40;;
9082;SDS011;4577;48.704;9.000;2023-08-30T11:44:08;13.93;;;3.80;;
9082;SDS011;4577;48.704;9.000;2023-08-30T11:46:34;4.17;;;3.77;;
9082;SDS011;4577;48.704;9.000;2023-08-30T11:49:00;4.60;;;3.80;;
9082;SDS011;4577;48.704;9.000;2023-08-30T11:51:27;6.03;;;3.77;;
9082;SDS011;4577;48.704;9.000;2023-08-30T11:53:54;8.57;;;4.20;;
9082;SDS011;4577;48.704;9.000;2023-08-30T11:56:22;7.50;;;4.90;;
9082;SDS011;4577;48.704;9.000;2023-08-30T11:58:48;6.63;;;5.97;;
9082;SDS011;4577;48.704;9.000;2023-08-30T12:01:16;4.73;;;4.33;;
9082;SDS011;4577;48.704;9.000;2023-08-30T12:03:44;6.10;;;5.20;;
9082;SDS011;4577;48.704;9.000;2023-08-30T12:06:15;18.33;;;12.17;;
9082;SDS011;4577;48.704;9.000;2023-08-30T12:08:41;15.23;;;8.90;;
9082;SDS011;4577;48.704;9.000;2023-08-30T12:11:17;12.60;;;8.43;;
9082;SDS011;4577;48.704;9.000;2023-08-30T12:13:44;12.83;;;7.10;;
9082;SDS011;4577;48.704;9.000;2023-08-30T12:16:14;27.43;;;19.17;;
9082;SDS011;4577;48.704;9.000;2023-08-30T12:18:43;16.30;;;11.03;;
9082;SDS011;4577;48.704;9.000;2023-08-30T12:21:09;13.27;;;10.43;;
9082;SDS011;4577;48.704;9.000;2023-08-30T12:23:35;17.23;;;12.93;;
9082;SDS011;4577;48.704;9.000;2023-08-30T12:26:05;29.67;;;11.97;;
9082;SDS011;4577;48.704;9.000;2023-08-30T12:28:34;9.70;;;6.40;;
9082;SDS011;4577;48.704;9.000;2023-08-30T12:31:03;9.37;;;7.20;;
9082;SDS011;4577;48.704;9.000;2023-08-30T12:33:29;9.20;;;7.70;;
9082;SDS011;4577;48.704;9.000;2023-08-30T12:35:56;11.07;;;7.70;;
9082;SDS011;4577;48.704;9.000;2023-08-30T12:38:23;13.70;;;6.87;;
9082;SDS011;4577;48.704;9.000;2023-08-30T12:40:53;32.43;;;16.43;;
9082;SDS011;4577;48.704;9.000;2023-08-30T12:43:19;9.90;;;8.30;;
9082;SDS011;4577;48.704;9.000;2023-08-30T12:45:46;10.17;;;6.73;;
9082;SDS011;4577;48.704;9.000;2023-08-30T12:48:13;18.50;;;12.67;;
9082;SDS011;4577;48.704;9.000;2023-08-30T12:50:44;13.50;;;10.03;;
9082;SDS011;4577;48.704;9.000;2023-08-30T12:53:11;21.10;;;13.43;;
9082;SDS011;4577;48.704;9.000;2023-08-30T12:55:37;14.70;;;9.83;;
9082;SDS011;4577;48.704;9.000;2023-08-30T12:58:09;30.87;;;22.83;;
9082;SDS011;4577;48.704;9.000;2023-08-30T13:00:35;25.83;;;18.70;;
9082;SDS011;4577;48.704;9.000;2023-08-30T13:03:01;20.80;;;13.50;;
9082;SDS011;4577;48.704;9.000;2023-08-30T13:05:28;18.93;;;14.03;;
9082;SDS011;4577;48.704;9.000;2023-08-30T13:07:55;10.70;;;8.57;;
9082;SDS011;4577;48.704;9.000;2023-08-30T13:10:21;19.13;;;8.40;;
9082;SDS011;4577;48.704;9.000;2023-08-30T13:12:47;10.73;;;7.40;;
9082;SDS011;4577;48.704;9.000;2023-08-30T13:15:13;20.43;;;15.50;;
9082;SDS011;4577;48.704;9.000;2023-08-30T13:17:39;17.67;;;9.47;;
9082;SDS011;4577;48.704;9.000;2023-08-30T13:20:05;5.37;;;4.50;;
9082;SDS011;4577;48.704;9.000;2023-08-30T13:22:31;7.83;;;5.10;;
9082;SDS011;4577;48.704;9.000;2023-08-30T13:24:58;17.47;;;11.30;;
9082;SDS011;4577;48.704;9.000;2023-08-30T13:27:23;21.53;;;13.47;;
9082;SDS011;4577;48.704;9.000;2023-08-30T13:29:49;9.43;;;6.70;;
9082;SDS011;4577;48.704;9.000;2023-08-30T13:32:15;5.67;;;4.03;;
9082;SDS011;4577;48.704;9.000;2023-08-30T13:34:40;4.13;;;3.73;;
9082;SDS011;4577;48.704;9.000;2023-08-30T13:37:10;4.17;;;3.50;;
9082;SDS011;4577;48.704;9.000;2023-08-30T13:39:37;4.13;;;3.50;;
9082;SDS011;4577;48.704;9.000;2023-08-30T13:42:02;5.73;;;3.50;;
9082;SDS011;4577;48.704;9.000;2023-08-30T13:44:28;3.40;;;3.10;;
9082;SDS011;4577;48.704;9.000;2023-08-30T13:46:54;7.83;;;3.13;;
9082;SDS011;4577;48.704;9.000;2023-08-30T13:49:20;5.23;;;3.60;;
9082;SDS011;4577;48.704;9.000;2023-08-30T13:51:46;3.80;;;3.00;;
9082;SDS011;4577;48.704;9.000;2023-08-30T13:54:11;3.87;;;3.40;;
9082;SDS011;4577;48.704;9.000;2023-08-30T13:56:37;4.80;;;2.90;;
9082;SDS011;4577;48.704;9.000;2023-08-30T13:59:03;6.10;;;5.43;;
9082;SDS011;4577;48.704;9.000;2023-08-30T14:01:32;13.70;;;7.93;;
9082;SDS011;4577;48.704;9.000;2023-08-30T14:04:00;23.27;;;13.40;;
9082;SDS011;4577;48.704;9.000;2023-08-30T14:06:26;10.87;;;9.60;;
9082;SDS011;4577;48.704;9.000;2023-08-30T14:08:51;8.03;;;5.70;;
9082;SDS011;4577;48.704;9.000;2023-08-30T14:11:17;4.77;;;4.00;;
9082;SDS011;4577;48.704;9.000;2023-08-30T14:13:43;5.67;;;3.47;;
9082;SDS011;4577;48.704;9.000;2023-08-30T14:16:08;14.20;;;9.50;;
9082;SDS011;4577;48.704;9.000;2023-08-30T14:18:35;9.17;;;8.23;;
9082;SDS011;4577;48.704;9.000;2023-08-30T14:21:01;11.43;;;9.67;;
9082;SDS011;4577;48.704;9.000;2023-08-30T14:23:28;12.70;;;9.43;;
9082;SDS011;4577;48.704;9.000;2023-08-30T14:25:58;5.77;;;3.97;;
9082;SDS011;4577;48.704;9.000;2023-08-30T14:28:38;9.10;;;6.70;;
9082;SDS011;4577;48.704;9.000;2023-08-30T14:31:08;7.50;;;5.93;;
9082;SDS011;4577;48.704;9.000;2023-08-30T14:33:35;4.93;;;4.00;;
9082;SDS011;4577;48.704;9.000;2023-08-30T14:36:01;5.93;;;3.57;;
9082;SDS011;4577;48.704;9.000;2023-08-30T14:38:28;11.47;;;5.33;;
9082;SDS011;4577;48.704;9.000;2023-08-30T14:40:57;12.00;;;5.00;;
9082;SDS011;4577;48.704;9.000;2023-08-30T14:43:24;13.53;;;11.83;;
9082;SDS011;4577;48.704;9.000;2023-08-30T14:45:50;9.77;;;7.07;;
9082;SDS011;4577;48.704;9.000;2023-08-30T14:48:16;13.60;;;10.60;;
9082;SDS011;4577;48.704;9.000;2023-08-30T14:50:41;18.27;;;6.90;;
9082;SDS011;4577;48.704;9.000;2023-08-30T14:53:07;5.27;;;4.77;;
9082;SDS011;4577;48.704;9.000;2023-08-30T14:55:33;9.20;;;3.60;;
9082;SDS011;4577;48.704;9.000;2023-08-30T14:57:59;3.80;;;3.50;;
9082;SDS011;4577;48.704;9.000;2023-08-30T15:00:25;5.13;;;2.80;;
9082;SDS011;4577;48.704;9.000;2023-08-30T15:02:51;3.07;;;2.23;;
9082;SDS011;4577;48.704;9.000;2023-08-30T15:05:20;2.47;;;2.27;;
9082;SDS011;4577;48.704;9.000;2023-08-30T15:07:46;3.50;;;2.60;;
9082;SDS011;4577;48.704;9.000;2023-08-30T15:10:11;2.90;;;2.60;;
9082;SDS011;4577;48.704;9.000;2023-08-30T15:12:46;2.93;;;2.60;;
9082;SDS011;4577;48.704;9.000;2023-08-30T15:15:12;14.90;;;13.13;;
9082;SDS011;4577;48.704;9.000;2023-08-30T15:17:38;5.20;;;4.17;;